Aeroporto :
LOGIN :

Iscrizione | Disclaimer

   EN    FR    IT 

 










Sommario :    VFR   VFR Marginale   IFR   IFR Intensivo   IFR Molto Intensivo
Visibilità : 
Base nubi : 
>= 8 km
>= 3000ft
5 / 8 km
1000 / 3000 ft
1500m / 5 km
500 / 1000 ft
800 / 1500m
200 / 500 ft
< 800m
< 200 ft
Simboli :   Temporali  Nebbia  Neve Forte  Precipitazioni Forti  Vento > 20 kt
SIGMETs :   Varie  Temporali  Ghiacco  Turbolenza  Onda orograficha  Ceneri Vulcaniche






- Altitudine del aeroporto : 75 ft
- Codice IATA : YEO


EGDY - RNAS Yeovilton

ULTIMO METAR :
  • 220650Z 15008KT 9999 SCT025 SCT050 07/05 Q0992 NOSIG RMK BLU BLU

METARs OBSOLETI :
  • 220550Z 12006KT 9999 FEW020 SCT035 06/05 Q0993 BLU
  • 220450Z 11003KT 9999 FEW020 SCT035 06/05 Q0993 BLU

TAF TAF EGDY
Valido dal 22 a 07 ore il 22 a 16 ore UTC


220542Z 2207/2216 14010KT 9999 FEW022 SCT035
PROB40
TEMPO 2207/2210 SCT022
PROB40
TEMPO 2211/2216 8000 RA BKN020



MetMap, La meteo Aeronautica in un colpo d'occhio ! - Copyright ORBIFLY Dicembre 2007 - Disclaimer

ORBIFLY MET'MAP TEAM :

Programmazione e sviluppo : Alexandra Zaïnal
Concezione e sviluppo : Baudouin d'Aumeries
Co-Programmazione e sviluppo : Marc-Olivier Méhu
Supporto tecnico e logistico : Manuel Goepfert
Aiuto per la traduzione : Arnaldo La Scala

Contatto : metmap@orbifly.com




FONTI E CREDITI :

   NOAA